Accueil
METAR-TAF:

METAR-TAF

Aéroports :

Yap, Yap Island, Micronésie

Aéroport international de Yap

latitude: 09-29N, longitude: 138-05E, altitude: 28 m

Observation

Le bulletin a été fait il y a 54 minutes, à 05:53 UTC
Vent 4 kt de direction variable
Température 31°C
Humidité 66%
Pression 1007 hPa
Visibilité: 19.3 km
Quelques nuages à une hauteur de 1600 ft, Cumulus congestus.
Nuages fragmentés à une hauteur de 30000 ft
averses à proximité

METAR: PTYA 240553Z VRB04KT 12SM VCSH FEW016TCU BKN300 31/24 A2974 RMK VCSH NE TCU NE SLP071 8/201 T03110242 10311 20294 57019

Heure: 16:47 (06:47 UTC)

Prévision

Le bulletin a été fait il y a 1 heure et 17 minutes, à 05:30 UTC
Prévision valable du 24 à 06 UTC au 25 à 06 UTC
Vent 5 kt de direction variable
Visibilité: 10 km
Nuages épars à une hauteur de 1600 ft
Nuages épars à une hauteur de 13000 ft
averses à proximité

TAF: PTYA 240530Z 2406/2506 VRB05KT P6SM VCSH SCT016 SCT130

Observations et prévisions météorologiques de plus de 4000 aéroports (messages METAR et TAF).

Les stations disponibles sont représentées par des disques jaunes et rouges sur la carte.

Passer la souris dessus pour voir le nom de la station.

Cliquer dessus pour voir les observations et prévisions météorologiques.

Pour changer de carte: cliquez sur les boutons verts avec une croix noire pour zoomer, sur le bouton vert avec un tiret pour effectuer un zoom arrière, ou sur les flèches vertes pour les cartes adjacentes.


METAR-TAF: